Time;durP1;ratioP1;P1;durP2;ratioP2;P2;SDS_P1;SDS_P2;PMS_P1;PMS_P2;Temp;Humidity;BMP_temperature;BMP_pressure;BME280_temperature;BME280_humidity;BME280_pressure;Samples;Min_cycle;Max_cycle;Signal;HPM_P1;HPM_P2
2024/04/12 00:01:42;;;;;;;9.18;3.88;;;14.50;99.90;;;;;;5417572;26;19936;-49
2024/04/12 00:04:09;;;;;;;6.82;4.03;;;14.50;99.90;;;;;;5417481;26;20015;-48
2024/04/12 00:06:39;;;;;;;8.27;4.00;;;14.40;99.90;;;;;;5416377;26;20014;-50
2024/04/12 00:09:17;;;;;;;8.85;4.70;;;14.40;99.90;;;;;;5417008;26;20007;-48
2024/04/12 00:11:50;;;;;;;13.02;4.30;;;14.40;99.90;;;;;;5417567;26;20068;-49
2024/04/12 00:14:16;;;;;;;8.60;4.32;;;14.40;99.90;;;;;;5417025;26;20078;-50
2024/04/12 00:16:43;;;;;;;11.20;5.05;;;14.50;99.90;;;;;;5417273;26;20015;-47
2024/04/12 00:19:18;;;;;;;8.50;4.50;;;14.40;99.90;;;;;;5417054;26;20006;-50
2024/04/12 00:21:48;;;;;;;7.60;4.20;;;14.40;99.90;;;;;;5417006;26;20027;-50
2024/04/12 00:24:16;;;;;;;8.80;4.30;;;14.40;99.90;;;;;;5416948;26;20000;-48
2024/04/12 00:26:45;;;;;;;9.43;4.70;;;14.50;99.90;;;;;;5417143;26;20337;-47
2024/04/12 00:29:39;;;;;;;9.27;4.78;;;14.40;99.90;;;;;;5416926;26;19991;-48
2024/04/12 00:32:18;;;;;;;9.65;4.88;;;14.40;99.90;;;;;;5417061;26;20032;-51
2024/04/12 00:34:47;;;;;;;8.75;5.43;;;14.40;99.90;;;;;;5417378;26;20010;-48
2024/04/12 00:37:17;;;;;;;6.82;4.53;;;14.40;99.90;;;;;;5416732;26;19996;-47
2024/04/12 00:39:53;;;;;;;9.32;5.00;;;14.50;99.90;;;;;;5417043;26;19999;-47
2024/04/12 00:42:44;;;;;;;10.73;5.00;;;14.50;99.90;;;;;;5417194;26;20011;-51
2024/04/12 00:45:11;;;;;;;12.00;4.70;;;14.60;99.90;;;;;;5416696;26;19992;-48
2024/04/12 00:47:41;;;;;;;9.32;4.57;;;14.60;99.90;;;;;;5416495;26;20019;-50
2024/04/12 00:50:08;;;;;;;13.40;4.93;;;14.70;99.90;;;;;;5416664;26;19999;-50
2024/04/12 00:52:35;;;;;;;8.82;4.85;;;14.70;99.90;;;;;;5416841;26;20068;-50
2024/04/12 00:55:09;;;;;;;10.50;4.38;;;14.70;99.90;;;;;;5414824;26;19995;-48
2024/04/12 00:57:39;;;;;;;7.60;4.45;;;14.60;99.90;;;;;;5416177;26;20031;-48
2024/04/12 01:00:11;;;;;;;7.22;4.18;;;14.60;99.90;;;;;;5416506;26;20345;-50
2024/04/12 01:02:39;;;;;;;9.73;4.70;;;14.60;99.90;;;;;;5416866;26;19999;-51
2024/04/12 01:05:08;;;;;;;8.95;4.30;;;14.70;99.90;;;;;;5416511;26;20007;-48
2024/04/12 01:07:36;;;;;;;8.60;4.25;;;14.70;99.90;;;;;;5416191;26;20015;-48
2024/04/12 01:10:06;;;;;;;9.65;4.25;;;14.70;99.90;;;;;;5416916;26;19995;-47
2024/04/12 01:12:33;;;;;;;7.50;4.40;;;14.70;99.90;;;;;;5416464;26;20076;-51
2024/04/12 01:14:59;;;;;;;9.13;4.05;;;14.70;99.90;;;;;;5414646;26;20337;-47
2024/04/12 01:17:25;;;;;;;7.72;3.95;;;14.70;99.90;;;;;;5416319;26;19999;-48
2024/04/12 01:19:55;;;;;;;7.13;4.20;;;14.70;99.90;;;;;;5416173;26;20402;-48
2024/04/12 01:22:25;;;;;;;6.20;3.70;;;14.70;99.90;;;;;;5416285;26;20000;-49
2024/04/12 01:24:51;;;;;;;7.18;4.28;;;14.60;99.90;;;;;;5416498;26;20031;-48
2024/04/12 01:27:17;;;;;;;8.85;4.30;;;14.60;99.90;;;;;;5415712;26;20003;-50
2024/04/12 01:29:45;;;;;;;8.98;3.97;;;14.60;99.90;;;;;;5416067;26;19995;-48
2024/04/12 01:32:12;;;;;;;9.55;4.72;;;14.60;99.90;;;;;;5416024;26;20360;-49
2024/04/12 01:34:38;;;;;;;8.73;4.32;;;14.50;99.90;;;;;;5414389;26;20000;-47
2024/04/12 01:37:04;;;;;;;10.13;4.63;;;14.50;99.90;;;;;;5415712;26;19996;-48
2024/04/12 01:39:34;;;;;;;9.18;4.15;;;14.50;99.90;;;;;;5413700;26;20064;-47
2024/04/12 01:42:04;;;;;;;7.63;3.90;;;14.40;99.90;;;;;;5415995;26;20002;-50
2024/04/12 01:44:31;;;;;;;8.95;4.70;;;14.40;99.90;;;;;;5416276;26;19995;-49
2024/04/12 01:46:57;;;;;;;9.23;4.45;;;14.50;99.90;;;;;;5415505;26;20007;-48
2024/04/12 01:49:23;;;;;;;11.13;4.70;;;14.50;99.90;;;;;;5415819;26;20086;-49
2024/04/12 01:51:49;;;;;;;8.13;4.15;;;14.50;99.90;;;;;;5414554;26;20522;-47
2024/04/12 01:54:17;;;;;;;8.05;4.25;;;14.50;99.90;;;;;;5415703;26;20068;-48
2024/04/12 01:56:47;;;;;;;10.20;4.55;;;14.50;99.90;;;;;;5415831;26;20065;-51
2024/04/12 01:59:21;;;;;;;7.53;4.38;;;14.60;99.90;;;;;;5415652;26;20455;-48
2024/04/12 02:01:48;;;;;;;9.93;5.07;;;14.60;99.90;;;;;;5415460;26;20003;-49
2024/04/12 02:04:18;;;;;;;9.70;5.22;;;14.50;99.90;;;;;;5415484;26;20055;-48
2024/04/12 02:06:45;;;;;;;9.02;5.15;;;14.60;99.90;;;;;;5415502;26;20330;-49
2024/04/12 02:09:14;;;;;;;12.35;5.00;;;14.60;99.90;;;;;;5414503;26;20000;-47
2024/04/12 02:11:47;;;;;;;8.40;5.38;;;14.60;99.90;;;;;;5415374;26;20406;-47
2024/04/12 02:14:14;;;;;;;11.98;5.47;;;14.50;99.90;;;;;;5415411;26;20027;-48
2024/04/12 02:16:41;;;;;;;9.38;5.63;;;14.50;99.90;;;;;;5415662;26;20010;-47
2024/04/12 02:19:11;;;;;;;9.07;5.32;;;14.50;99.90;;;;;;5412835;26;19995;-50
2024/04/12 02:21:38;;;;;;;;;;;14.50;99.90;;;;;;5415877;26;20003;-48
2024/04/12 02:24:11;;;;;;;9.02;5.18;;;14.60;99.90;;;;;;5415323;26;20271;-48
2024/04/12 02:26:40;;;;;;;8.88;5.28;;;14.50;99.90;;;;;;5415203;26;20003;-48
2024/04/12 02:29:06;;;;;;;;;;;14.50;99.90;;;;;;5415224;26;20003;-49
2024/04/12 02:31:35;;;;;;;15.70;6.28;;;14.50;99.90;;;;;;5414842;26;20309;-48
2024/04/12 02:34:02;;;;;;;12.13;6.55;;;14.50;99.90;;;;;;5415350;26;20020;-47
2024/04/12 02:36:32;;;;;;;12.45;6.40;;;14.50;99.90;;;;;;5415119;26;19991;-50
2024/04/12 02:39:00;;;;;;;10.57;6.00;;;14.40;99.90;;;;;;5414119;26;20068;-50
2024/04/12 02:41:37;;;;;;;11.65;5.97;;;14.30;99.90;;;;;;5414950;26;20350;-47
2024/04/12 02:44:06;;;;;;;13.95;6.03;;;14.30;99.90;;;;;;5415070;26;20011;-49
2024/04/12 02:46:32;;;;;;;11.40;6.15;;;14.40;99.90;;;;;;5414831;26;19996;-48
2024/04/12 02:49:04;;;;;;;10.27;5.60;;;14.30;99.90;;;;;;5413981;26;19992;-47
2024/04/12 02:51:30;;;;;;;14.80;6.22;;;14.30;99.90;;;;;;5414764;26;20072;-48
2024/04/12 02:53:57;;;;;;;11.77;6.68;;;14.30;99.90;;;;;;5415010;26;19995;-47
2024/04/12 02:56:24;;;;;;;10.73;6.07;;;14.20;99.90;;;;;;5413268;26;19995;-47
2024/04/12 02:58:53;;;;;;;9.82;5.82;;;14.20;99.90;;;;;;5413906;26;19995;-48
2024/04/12 03:01:21;;;;;;;11.00;5.88;;;14.20;99.90;;;;;;5414742;26;20011;-47
2024/04/12 03:03:54;;;;;;;8.68;5.50;;;14.30;99.90;;;;;;5415399;26;20015;-47
2024/04/12 03:06:31;;;;;;;11.88;5.60;;;14.30;99.90;;;;;;5414564;26;20041;-48
2024/04/12 03:09:05;;;;;;;12.00;5.43;;;14.30;99.90;;;;;;5413992;26;20007;-47
2024/04/12 03:11:35;;;;;;;12.45;5.95;;;14.40;99.90;;;;;;5414398;26;20006;-47
2024/04/12 03:14:08;;;;;;;10.38;5.50;;;14.30;99.90;;;;;;5414410;26;20437;-48
2024/04/12 03:16:42;;;;;;;11.73;5.47;;;14.30;99.90;;;;;;5414486;26;20032;-49
2024/04/12 03:19:10;;;;;;;7.38;4.35;;;14.30;99.90;;;;;;5414422;26;20072;-47
2024/04/12 03:21:38;;;;;;;6.80;4.32;;;14.40;99.90;;;;;;5418076;26;20000;-48
2024/04/12 03:24:10;;;;;;;9.30;4.30;;;14.40;99.90;;;;;;5418195;26;20420;-49
2024/04/12 03:26:37;;;;;;;8.98;4.50;;;14.40;99.90;;;;;;5417835;26;20039;-48
2024/04/12 03:29:05;;;;;;;6.65;4.30;;;14.30;99.90;;;;;;5417032;26;20068;-47
2024/04/12 03:31:38;;;;;;;7.28;4.05;;;14.30;99.90;;;;;;5417790;26;20015;-48
2024/04/12 03:34:08;;;;;;;7.40;4.30;;;14.30;99.90;;;;;;5417960;26;20006;-48
2024/04/12 03:41:57;;;;;;;8.07;4.13;;;14.20;99.90;;;;;;5417682;26;19999;-47
2024/04/12 03:44:30;;;;;;;7.07;4.55;;;14.10;99.90;;;;;;5417741;26;20006;-47
2024/04/12 03:46:59;;;;;;;9.77;4.97;;;14.10;99.90;;;;;;5416946;26;20436;-50
2024/04/12 03:49:28;;;;;;;;;;;14.10;99.90;;;;;;5418116;26;20000;-49
2024/04/12 03:51:56;;;;;;;9.90;5.18;;;14.10;99.90;;;;;;5417596;26;19925;-48
2024/04/12 03:54:23;;;;;;;10.40;4.63;;;14.10;99.90;;;;;;5417741;26;20006;-48
2024/04/12 03:56:51;;;;;;;8.25;4.93;;;14.00;99.90;;;;;;5416737;26;20061;-49
2024/04/12 03:59:18;;;;;;;10.95;5.00;;;13.90;99.90;;;;;;5417501;26;20518;-51
2024/04/12 04:01:45;;;;;;;10.27;5.15;;;13.90;99.90;;;;;;5417438;26;20344;-48
2024/04/12 04:04:17;;;;;;;9.23;5.22;;;13.80;99.90;;;;;;5417366;26;19991;-47
2024/04/12 04:06:54;;;;;;;10.98;5.15;;;13.90;99.90;;;;;;5417201;26;20007;-47
2024/04/12 04:09:20;;;;;;;10.65;5.57;;;13.80;99.90;;;;;;5417259;26;19995;-47
2024/04/12 04:11:48;;;;;;;11.85;6.40;;;13.80;99.90;;;;;;5417358;26;20073;-49
2024/04/12 04:14:19;;;;;;;9.25;5.30;;;13.70;99.90;;;;;;5417358;26;20080;-48
2024/04/12 04:16:51;;;;;;;9.80;5.60;;;13.70;99.90;;;;;;5417258;26;19997;-50
2024/04/12 04:19:31;;;;;;;11.45;5.18;;;13.70;99.90;;;;;;5417131;26;19996;-47
2024/04/12 04:22:21;;;;;;;9.13;4.70;;;13.60;99.90;;;;;;5417216;26;20403;-48
2024/04/12 04:24:52;;;;;;;11.05;5.80;;;13.70;99.90;;;;;;5417090;26;19999;-49
2024/04/12 04:27:21;;;;;;;11.10;5.68;;;13.60;99.90;;;;;;5416358;26;20003;-50
2024/04/12 04:29:47;;;;;;;9.43;5.38;;;13.70;99.90;;;;;;5415375;26;19995;-49
2024/04/12 04:32:14;;;;;;;7.90;4.30;;;13.60;99.90;;;;;;5416559;26;20007;-47
2024/04/12 04:34:44;;;;;;;9.18;4.47;;;13.70;99.90;;;;;;5417102;26;20326;-49
2024/04/12 04:37:10;;;;;;;7.38;4.45;;;13.80;99.90;;;;;;5416293;26;19996;-49
2024/04/12 04:39:36;;;;;;;9.88;5.25;;;13.80;99.90;;;;;;5416129;26;20436;-48
2024/04/12 04:42:02;;;;;;;8.18;4.93;;;13.80;99.90;;;;;;5416733;26;20069;-48
2024/04/12 04:44:29;;;;;;;10.07;5.05;;;13.80;99.90;;;;;;5416623;26;20603;-47
2024/04/12 04:46:56;;;;;;;10.02;4.95;;;13.80;99.90;;;;;;5416260;26;20306;-46
2024/04/12 04:49:25;;;;;;;10.82;5.65;;;13.80;99.90;;;;;;5416711;26;20541;-48
2024/04/12 04:51:52;;;;;;;11.68;6.35;;;13.80;99.90;;;;;;5416723;26;19995;-47
2024/04/12 04:54:21;;;;;;;9.75;5.68;;;13.70;99.90;;;;;;5416690;26;19995;-50
2024/04/12 04:56:48;;;;;;;9.85;5.97;;;13.70;99.90;;;;;;5416069;26;20028;-48
2024/04/12 04:59:17;;;;;;;15.70;5.90;;;13.70;99.90;;;;;;5416354;26;19995;-48
2024/04/12 05:01:48;;;;;;;11.85;7.35;;;13.60;99.90;;;;;;5415642;26;20044;-47
2024/04/12 05:04:21;;;;;;;10.98;6.00;;;13.70;99.90;;;;;;5416625;26;20018;-48
2024/04/12 05:06:50;;;;;;;16.65;7.90;;;13.60;99.90;;;;;;5415360;26;20000;-49
2024/04/12 05:09:18;;;;;;;15.40;7.43;;;13.70;99.90;;;;;;5414190;26;20019;-48
2024/04/12 05:11:50;;;;;;;9.98;6.00;;;13.60;99.90;;;;;;5416115;26;20067;-48
2024/04/12 05:17:09;;;;;;;13.20;6.53;;;13.60;99.90;;;;;;5416020;26;20009;-48
2024/04/12 05:19:43;;;;;;;12.40;7.00;;;13.60;99.90;;;;;;5416169;26;20462;-48
2024/04/12 05:22:10;;;;;;;15.82;7.22;;;13.60;99.90;;;;;;5416225;26;20000;-50
2024/04/12 05:24:39;;;;;;;13.85;7.03;;;13.60;99.90;;;;;;5415320;26;19999;-49
2024/04/12 05:27:06;;;;;;;13.35;7.60;;;13.60;99.90;;;;;;5415400;26;19995;-49
2024/04/12 05:29:33;;;;;;;13.43;7.30;;;13.60;99.90;;;;;;5416330;26;20428;-49
2024/04/12 05:31:59;;;;;;;16.15;7.72;;;13.60;99.90;;;;;;5415937;26;19991;-49
2024/04/12 05:34:26;;;;;;;11.57;7.03;;;13.60;99.90;;;;;;5416184;26;20035;-48
2024/04/12 05:37:03;;;;;;;13.25;7.30;;;13.60;99.90;;;;;;5415467;26;19991;-49
2024/04/12 05:39:35;;;;;;;15.18;8.73;;;13.60;99.90;;;;;;5416559;26;20072;-49
2024/04/12 05:42:05;;;;;;;13.00;8.10;;;13.50;99.90;;;;;;5415674;26;20076;-48
2024/04/12 05:44:35;;;;;;;15.10;8.60;;;13.50;99.90;;;;;;5415019;26;19992;-48
2024/04/12 05:47:09;;;;;;;16.50;8.48;;;13.50;99.90;;;;;;5415054;26;19999;-47
2024/04/12 05:49:36;;;;;;;15.55;8.27;;;13.50;99.90;;;;;;5415976;26;19995;-49
2024/04/12 05:52:03;;;;;;;17.85;8.45;;;13.60;99.90;;;;;;5416043;26;19999;-49
2024/04/12 05:54:44;;;;;;;17.50;8.10;;;13.60;99.90;;;;;;5415742;26;20197;-47
2024/04/12 05:57:13;;;;;;;15.00;7.68;;;13.70;99.90;;;;;;5415024;26;20007;-48
2024/04/12 05:59:42;;;;;;;;;;;13.60;99.90;;;;;;5416431;26;20000;-47
2024/04/12 06:02:10;;;;;;;13.38;6.93;;;13.70;99.90;;;;;;5416389;26;19925;-49
2024/04/12 06:04:37;;;;;;;12.82;7.72;;;13.70;99.90;;;;;;5415252;26;19995;-49
2024/04/12 06:07:11;;;;;;;15.05;8.07;;;13.60;99.90;;;;;;5414349;26;19992;-48
2024/04/12 06:09:38;;;;;;;15.90;7.25;;;13.60;99.90;;;;;;5415490;26;20460;-47
2024/04/12 06:12:06;;;;;;;16.13;7.10;;;13.70;99.90;;;;;;5414600;26;20041;-48
2024/04/12 06:14:38;;;;;;;18.42;7.97;;;13.80;99.90;;;;;;5415366;26;20364;-49
2024/04/12 06:17:08;;;;;;;12.00;7.28;;;13.70;99.90;;;;;;5414770;26;19999;-48
2024/04/12 06:19:38;;;;;;;13.05;7.20;;;13.80;99.90;;;;;;5415359;26;19995;-49
2024/04/12 06:22:12;;;;;;;13.85;6.38;;;13.80;99.90;;;;;;5415429;26;20073;-51
2024/04/12 06:24:39;;;;;;;12.48;6.63;;;13.80;99.90;;;;;;5415596;26;19999;-48
2024/04/12 06:27:05;;;;;;;11.52;6.15;;;14.00;99.90;;;;;;5414663;26;19995;-50
2024/04/12 06:29:34;;;;;;;11.93;5.95;;;14.00;99.90;;;;;;5415282;26;20069;-48
2024/04/12 06:32:00;;;;;;;11.63;5.65;;;14.00;99.90;;;;;;5415088;26;20000;-49
2024/04/12 06:34:26;;;;;;;13.40;6.10;;;14.10;99.90;;;;;;5415247;26;20010;-48
2024/04/12 06:37:05;;;;;;;14.88;6.32;;;14.10;99.90;;;;;;5413604;26;20348;-49
2024/04/12 06:39:31;;;;;;;;;;;14.10;99.90;;;;;;5416093;26;20039;-50
2024/04/12 06:42:04;;;;;;;9.27;5.70;;;14.10;99.90;;;;;;5414952;26;19925;-49
2024/04/12 06:44:30;;;;;;;9.32;5.53;;;14.10;99.90;;;;;;5414996;26;19991;-49
2024/04/12 06:46:58;;;;;;;9.10;5.43;;;14.10;99.90;;;;;;5413971;26;20004;-49
2024/04/12 06:49:31;;;;;;;13.43;5.57;;;14.20;99.90;;;;;;5414444;26;19996;-49
2024/04/12 06:52:09;;;;;;;10.68;5.45;;;14.30;99.90;;;;;;5414718;26;20003;-52
2024/04/12 06:54:36;;;;;;;12.75;5.80;;;14.30;99.90;;;;;;5415957;26;19995;-50
2024/04/12 06:57:03;;;;;;;14.32;6.13;;;14.20;99.90;;;;;;5417506;26;20444;-50
2024/04/12 06:59:35;;;;;;;12.60;6.03;;;14.20;99.90;;;;;;5418069;26;20071;-50
2024/04/12 07:02:05;;;;;;;11.27;6.00;;;14.20;99.90;;;;;;5418275;26;20004;-52
2024/04/12 07:04:31;;;;;;;12.63;5.90;;;14.20;99.90;;;;;;5418089;26;19995;-49
2024/04/12 07:06:57;;;;;;;8.63;5.22;;;14.20;99.90;;;;;;5417461;26;20073;-49
2024/04/12 07:09:24;;;;;;;10.82;4.72;;;14.20;99.90;;;;;;5418483;26;20433;-50
2024/04/12 07:11:52;;;;;;;10.00;4.32;;;14.30;99.90;;;;;;5417993;26;20069;-50
2024/04/12 07:14:24;;;;;;;9.82;4.97;;;14.30;99.90;;;;;;5416082;26;20005;-48
2024/04/12 07:16:50;;;;;;;10.68;5.53;;;14.40;99.90;;;;;;5417237;26;20003;-48
2024/04/12 07:19:18;;;;;;;11.40;4.72;;;14.50;99.90;;;;;;5417821;26;20072;-49
2024/04/12 07:21:54;;;;;;;8.68;4.70;;;14.50;99.90;;;;;;5417889;26;20365;-53
2024/04/12 07:24:22;;;;;;;12.45;5.50;;;14.60;99.90;;;;;;5418197;26;20457;-48
2024/04/12 07:26:49;;;;;;;10.48;4.65;;;14.60;99.90;;;;;;5417107;26;20109;-48
2024/04/12 07:29:15;;;;;;;9.82;4.47;;;14.80;99.90;;;;;;5417945;26;20072;-48
2024/04/12 07:31:42;;;;;;;10.77;5.15;;;14.90;99.90;;;;;;5417846;26;20000;-47
2024/04/12 07:34:08;;;;;;;7.50;4.65;;;15.00;99.90;;;;;;5417776;26;20039;-48
2024/04/12 07:36:37;;;;;;;8.63;4.60;;;15.00;99.90;;;;;;5417734;26;20069;-52
2024/04/12 07:39:04;;;;;;;10.95;5.35;;;15.00;99.90;;;;;;5416940;26;20011;-49
2024/04/12 07:41:33;;;;;;;8.38;5.20;;;15.20;99.90;;;;;;5417468;26;20525;-49
2024/04/12 07:44:04;;;;;;;8.10;4.50;;;15.30;99.90;;;;;;5416878;26;20513;-48
2024/04/12 07:46:33;;;;;;;9.87;5.00;;;15.40;99.90;;;;;;5417734;26;20005;-48
2024/04/12 07:49:07;;;;;;;11.20;4.70;;;15.30;99.90;;;;;;5415973;26;20317;-48
2024/04/12 07:51:39;;;;;;;11.60;4.90;;;15.30;99.90;;;;;;5417368;26;20344;-48
2024/04/12 07:54:11;;;;;;;8.27;4.70;;;15.30;99.90;;;;;;5417667;26;20027;-50
2024/04/12 07:56:43;;;;;;;9.63;4.80;;;15.40;99.90;;;;;;5417674;26;20337;-48
2024/04/12 07:59:17;;;;;;;10.45;5.25;;;15.40;99.90;;;;;;5415059;26;20002;-50
2024/04/12 08:01:46;;;;;;;10.13;5.47;;;15.40;99.90;;;;;;5417584;26;19995;-48
2024/04/12 08:04:26;;;;;;;10.80;5.32;;;15.40;99.90;;;;;;5417228;26;20000;-52
2024/04/12 08:06:55;;;;;;;8.63;4.60;;;15.30;99.90;;;;;;5415569;26;20000;-48
2024/04/12 08:09:44;;;;;;;8.82;4.80;;;15.30;99.90;;;;;;5417408;26;19999;-50
2024/04/12 08:12:14;;;;;;;9.95;4.70;;;15.30;99.90;;;;;;5417522;26;19999;-52
2024/04/12 08:14:51;;;;;;;11.77;4.90;;;15.40;99.90;;;;;;5415325;26;20068;-51
2024/04/12 08:17:28;;;;;;;9.38;4.63;;;15.40;99.90;;;;;;5416521;26;20002;-50
2024/04/12 08:20:12;;;;;;;13.70;5.53;;;15.50;99.90;;;;;;5417442;26;20000;-49
2024/04/12 08:22:38;;;;;;;6.68;4.32;;;15.50;99.90;;;;;;5417393;26;20406;-49
2024/04/12 08:25:06;;;;;;;8.80;4.40;;;15.80;99.90;;;;;;5417344;26;19995;-47
2024/04/12 08:27:34;;;;;;;10.13;4.73;;;16.00;99.90;;;;;;5416560;26;20072;-49
2024/04/12 08:30:13;;;;;;;10.50;4.85;;;16.00;99.90;;;;;;5417110;26;20023;-48
2024/04/12 08:32:39;;;;;;;10.50;5.50;;;16.00;99.90;;;;;;5417183;26;19996;-51
2024/04/12 08:35:08;;;;;;;9.88;4.38;;;16.00;99.90;;;;;;5416229;26;20003;-49
2024/04/12 08:37:38;;;;;;;8.40;5.03;;;16.00;99.90;;;;;;5416055;26;19995;-49
2024/04/12 08:40:08;;;;;;;9.82;4.90;;;16.10;99.90;;;;;;5416912;26;19996;-49
2024/04/12 08:42:38;;;;;;;10.88;5.00;;;16.20;99.90;;;;;;5416877;26;20047;-47
2024/04/12 08:45:37;;;;;;;10.77;4.10;;;16.40;99.90;;;;;;5416938;26;20032;-50
2024/04/12 08:48:04;;;;;;;13.70;4.97;;;16.50;99.90;;;;;;5415383;26;19987;-49
2024/04/12 08:50:31;;;;;;;7.30;4.28;;;16.50;99.90;;;;;;5416839;26;20012;-50
2024/04/12 08:53:04;;;;;;;7.32;4.32;;;16.60;99.90;;;;;;5416996;26;20431;-49
2024/04/12 08:55:30;;;;;;;8.20;4.47;;;16.60;99.90;;;;;;5416993;26;19999;-49
2024/04/12 08:58:01;;;;;;;9.73;4.38;;;16.50;99.90;;;;;;5416114;26;20003;-48
2024/04/12 09:00:33;;;;;;;8.70;4.18;;;16.40;99.90;;;;;;5416650;26;20068;-48
2024/04/12 09:03:10;;;;;;;11.43;4.40;;;16.40;99.90;;;;;;5416793;26;20010;-48
2024/04/12 09:05:42;;;;;;;12.10;5.00;;;16.40;99.90;;;;;;5416954;26;20076;-47
2024/04/12 09:08:08;;;;;;;9.82;5.07;;;16.40;99.90;;;;;;5415885;26;20011;-48
2024/04/12 09:10:35;;;;;;;11.07;4.13;;;16.50;99.90;;;;;;5416819;26;20045;-47
2024/04/12 09:13:03;;;;;;;9.35;4.53;;;16.50;99.90;;;;;;5416303;26;20537;-46
2024/04/12 09:15:32;;;;;;;10.88;5.07;;;16.50;99.90;;;;;;5416655;26;20007;-48
2024/04/12 09:18:00;;;;;;;9.43;3.92;;;16.50;99.90;;;;;;5415333;26;19995;-47
2024/04/12 09:20:30;;;;;;;8.30;4.82;;;16.60;99.90;;;;;;5416175;26;20002;-47
2024/04/12 09:23:13;;;;;;;6.75;3.72;;;16.70;99.90;;;;;;5416230;26;20448;-48
2024/04/12 09:25:54;;;;;;;9.13;4.25;;;16.80;99.90;;;;;;5416341;26;19999;-50
2024/04/12 09:28:37;;;;;;;8.18;3.88;;;16.90;99.90;;;;;;5415737;26;20136;-47
2024/04/12 09:33:51;;;;;;;9.95;4.57;;;17.00;99.90;;;;;;5416168;26;20433;-46
2024/04/12 09:36:38;;;;;;;7.75;4.25;;;17.10;99.90;;;;;;5416242;26;20000;-48
2024/04/12 09:39:15;;;;;;;7.22;4.28;;;17.10;99.90;;;;;;5415323;26;19996;-48
2024/04/12 09:41:53;;;;;;;6.90;3.92;;;17.00;99.90;;;;;;5416124;26;20000;-47
2024/04/12 09:44:27;;;;;;;8.15;3.95;;;17.00;99.90;;;;;;5415879;26;19999;-49
2024/04/12 10:37:31;;;;;;;9.40;3.95;;;18.40;99.90;;;;;;5418864;26;20340;-46
2024/04/12 10:39:57;;;;;;;7.35;3.95;;;18.40;99.90;;;;;;5418528;26;20402;-49
2024/04/12 10:42:30;;;;;;;8.55;4.00;;;18.40;99.90;;;;;;5418536;26;19995;-50
2024/04/12 10:44:59;;;;;;;9.70;3.40;;;18.40;99.90;;;;;;5418490;26;20003;-48
2024/04/12 10:47:28;;;;;;;9.07;3.47;;;18.40;99.90;;;;;;5417617;26;20009;-49
2024/04/12 10:49:58;;;;;;;6.25;3.33;;;18.50;99.90;;;;;;5418514;26;20011;-47
2024/04/12 10:52:31;;;;;;;9.32;4.18;;;18.40;99.90;;;;;;5418347;26;20009;-49
2024/04/12 10:55:01;;;;;;;7.65;3.45;;;18.50;99.90;;;;;;5418335;26;20003;-48
2024/04/12 10:57:30;;;;;;;7.38;3.70;;;18.60;99.90;;;;;;5416957;26;20464;-49
2024/04/12 11:00:00;;;;;;;;;;;18.70;99.90;;;;;;5418706;26;19999;-46
2024/04/12 11:02:31;;;;;;;8.10;3.65;;;18.80;99.90;;;;;;5418340;26;19937;-49
2024/04/12 11:07:42;;;;;;;8.70;3.00;;;19.10;99.90;;;;;;5417319;26;19996;-50
2024/04/12 11:10:22;;;;;;;6.50;2.75;;;19.00;99.90;;;;;;5418127;26;19999;-47
2024/04/12 11:12:51;;;;;;;6.05;2.70;;;19.10;99.90;;;;;;5418159;26;20007;-47
2024/04/12 11:31:55;;;;;;;5.93;2.25;;;19.60;99.90;;;;;;5417737;26;20006;-47
2024/04/12 11:34:23;;;;;;;5.38;2.20;;;19.70;99.90;;;;;;5417815;26;20381;-47
2024/04/12 11:36:53;;;;;;;5.90;2.30;;;19.90;99.90;;;;;;5416936;26;20004;-48
2024/04/12 11:39:26;;;;;;;6.43;1.98;;;20.10;99.90;;;;;;5417998;26;19995;-47
2024/04/12 11:41:59;;;;;;;5.57;2.20;;;20.50;99.90;;;;;;5416132;26;20027;-49
2024/04/12 11:44:26;;;;;;;7.50;2.25;;;21.00;99.90;;;;;;5417848;26;19996;-49
2024/04/12 11:46:56;;;;;;;6.45;2.00;;;21.20;99.90;;;;;;5416780;26;19999;-51
2024/04/12 11:49:26;;;;;;;5.13;2.00;;;21.20;99.90;;;;;;5417381;26;20011;-49
2024/04/12 11:52:01;;;;;;;7.78;2.80;;;21.30;99.90;;;;;;5417699;26;20455;-49
2024/04/12 11:54:29;;;;;;;6.45;2.20;;;21.50;99.90;;;;;;5417613;26;20011;-47
2024/04/12 11:57:00;;;;;;;5.83;3.17;;;21.50;99.90;;;;;;5417072;26;20007;-48
2024/04/12 11:59:31;;;;;;;7.22;3.55;;;21.60;99.90;;;;;;5416996;26;19999;-50
2024/04/12 12:02:01;;;;;;;10.90;5.30;;;21.80;99.90;;;;;;5417118;26;20361;-49
2024/04/12 12:04:28;;;;;;;6.97;2.70;;;21.80;99.90;;;;;;5415402;26;20069;-47
2024/04/12 12:06:55;;;;;;;9.20;2.92;;;21.60;99.90;;;;;;5416344;26;20011;-47
2024/04/12 12:09:22;;;;;;;7.25;2.95;;;21.30;99.90;;;;;;5417219;26;20042;-47
2024/04/12 12:11:51;;;;;;;9.45;3.15;;;21.00;99.90;;;;;;5417303;26;20332;-47
2024/04/12 12:14:18;;;;;;;18.23;8.85;;;20.70;99.90;;;;;;5416849;26;20003;-47
2024/04/12 12:16:45;;;;;;;10.35;4.28;;;20.60;99.90;;;;;;5417363;26;20007;-48
2024/04/12 12:19:11;;;;;;;9.80;3.50;;;20.40;99.90;;;;;;5416245;26;20002;-47
2024/04/12 12:21:37;;;;;;;6.00;2.33;;;20.30;99.90;;;;;;5417056;26;20072;-46
2024/04/12 12:24:04;;;;;;;4.82;2.05;;;20.30;99.90;;;;;;5417092;26;19996;-49
2024/04/12 12:26:34;;;;;;;6.40;2.20;;;20.40;99.90;;;;;;5417235;26;20000;-49
2024/04/12 12:29:01;;;;;;;5.43;2.20;;;20.30;99.90;;;;;;5416325;26;20440;-48
2024/04/12 12:31:28;;;;;;;4.55;2.00;;;20.30;99.90;;;;;;5416788;26;20069;-52
2024/04/12 12:33:55;;;;;;;7.15;2.35;;;20.30;99.90;;;;;;5417149;26;20336;-51
2024/04/12 12:36:21;;;;;;;4.82;2.15;;;20.50;99.90;;;;;;5417036;26;20011;-48
2024/04/12 12:38:48;;;;;;;7.07;2.30;;;20.80;99.90;;;;;;5415807;26;20007;-48
2024/04/12 12:41:15;;;;;;;6.47;2.60;;;21.10;99.90;;;;;;5416703;26;20023;-49
2024/04/12 12:43:45;;;;;;;3.65;1.98;;;21.30;99.90;;;;;;5416976;26;20068;-49
2024/04/12 12:46:13;;;;;;;3.42;1.70;;;21.40;99.90;;;;;;5416695;26;19995;-51
2024/04/12 12:48:39;;;;;;;5.80;1.85;;;21.60;99.90;;;;;;5415999;26;20011;-47
2024/04/12 12:51:09;;;;;;;4.75;1.95;;;21.80;99.90;;;;;;5415680;26;19995;-52
2024/04/12 12:53:36;;;;;;;5.53;2.30;;;21.80;99.90;;;;;;5415976;26;20069;-49
2024/04/12 12:56:06;;;;;;;4.95;2.00;;;21.60;99.90;;;;;;5416233;26;19995;-47
2024/04/12 12:58:33;;;;;;;4.60;2.00;;;21.40;99.90;;;;;;5416149;26;20007;-51
2024/04/12 13:01:00;;;;;;;4.55;1.80;;;21.20;99.90;;;;;;5415749;26;19992;-52
2024/04/12 13:03:31;;;;;;;4.80;1.75;;;21.00;99.90;;;;;;5417109;26;20497;-50
2024/04/12 13:05:58;;;;;;;8.98;3.05;;;20.90;99.90;;;;;;5416624;26;19996;-48
2024/04/12 13:08:26;;;;;;;6.28;2.08;;;20.80;99.90;;;;;;5415518;26;20006;-51
2024/04/12 13:10:56;;;;;;;4.63;2.00;;;20.70;99.90;;;;;;5416690;26;20521;-52
2024/04/12 13:13:23;;;;;;;12.50;7.50;;;20.60;99.90;;;;;;5416543;26;20007;-47
2024/04/12 13:15:57;;;;;;;5.45;2.08;;;20.50;99.90;;;;;;5416617;26;20069;-50
2024/04/12 13:18:27;;;;;;;4.53;2.15;;;20.40;99.90;;;;;;5415739;26;20072;-47
2024/04/12 13:20:55;;;;;;;5.43;2.47;;;20.20;99.90;;;;;;5416318;26;19999;-48
2024/04/12 13:23:25;;;;;;;5.25;2.00;;;20.10;99.90;;;;;;5413338;26;20020;-48
2024/04/12 13:25:55;;;;;;;7.55;2.25;;;20.00;99.90;;;;;;5416466;26;20000;-51
2024/04/12 13:28:22;;;;;;;5.85;2.42;;;20.00;99.90;;;;;;5415506;26;20003;-51
2024/04/12 13:30:48;;;;;;;4.15;1.92;;;20.00;99.90;;;;;;5416029;26;20072;-48
2024/04/12 13:33:14;;;;;;;6.53;2.35;;;20.10;99.90;;;;;;5414383;26;20071;-52
2024/04/12 13:35:41;;;;;;;5.40;2.20;;;20.20;99.90;;;;;;5416077;26;20040;-48
2024/04/12 13:38:14;;;;;;;6.75;2.30;;;20.40;99.90;;;;;;5415799;26;20011;-52
2024/04/12 13:40:45;;;;;;;5.28;2.08;;;20.60;99.90;;;;;;5416147;26;20468;-49
2024/04/12 13:43:15;;;;;;;4.07;1.77;;;20.70;99.90;;;;;;5415701;26;19995;-48
2024/04/12 13:51:20;;;;;;;4.75;1.95;;;21.00;99.90;;;;;;5415799;26;19996;-49
2024/04/12 13:53:50;;;;;;;6.85;2.35;;;21.00;99.90;;;;;;5416101;26;19999;-51
2024/04/12 13:56:20;;;;;;;6.18;2.00;;;21.00;99.90;;;;;;5415775;26;20006;-48
2024/04/12 13:58:56;;;;;;;7.13;2.38;;;21.10;99.90;;;;;;5415543;26;20064;-48
2024/04/12 14:01:28;;;;;;;4.82;1.80;;;21.30;99.90;;;;;;5415741;26;20072;-52
2024/04/12 14:04:02;;;;;;;5.18;2.35;;;21.50;99.90;;;;;;5414519;26;20409;-49
2024/04/12 14:06:33;;;;;;;3.33;2.00;;;21.60;99.90;;;;;;5416141;26;20068;-51
2024/04/12 14:09:08;;;;;;;7.72;1.98;;;21.80;99.90;;;;;;5414964;26;20010;-48
2024/04/12 14:11:35;;;;;;;5.60;1.95;;;21.90;99.90;;;;;;5416166;26;19996;-48
2024/04/12 14:14:04;;;;;;;6.25;2.25;;;22.10;99.90;;;;;;5415597;26;19996;-49
2024/04/12 14:16:41;;;;;;;5.65;2.25;;;22.20;99.90;;;;;;5415645;26;19996;-49
2024/04/12 14:19:20;;;;;;;4.40;2.08;;;22.10;99.90;;;;;;5414691;26;19992;-48
2024/04/12 14:21:47;;;;;;;5.78;2.60;;;22.00;99.90;;;;;;5415814;26;20011;-48
2024/04/12 14:27:00;;;;;;;4.47;2.08;;;21.90;99.90;;;;;;5414558;26;19999;-50
2024/04/12 14:29:31;;;;;;;5.63;2.10;;;21.70;99.90;;;;;;5414914;26;19996;-51